M/V Manukai — WRGD — position and weather

sailwx.info

Track history (hours):
 
Tides and Currents Weather Stations Pressure Air Temp Water Temp Dewpoint Dewpoint Depression Visibility Wind Speed Wind Dir Waves Ship Positions

M/V Manukai

Owner: Matson Navigation Company, Inc., Oakland, CA. More information available from US FCC via Universal Licensing System and Coast Guard Vessel Documentation Center.

Last reported at 2018-Apr-25 18:00 UTC. Time now 2018-Apr-26 00:20 UTC.
Position N 42°54' W 158°54'.

Type: Ship (hazmat cat A). MMSI: 369296000.

Wind from 270 at 12 knots

Barometer 1030.0 mb
Air temperature 9.0 ° C
Visibility: greater than 10.8 NM
Dewpoint 1.8 ° C
Water temperature 9.0 ° C

Date/timePositionNaut miles runAvg speedWind from/ knotsBaromVisibWave heightAir tempDewpointWater temp
2018-Apr-25 18:00N 42°54' W 158°54'14524.2 270 / 121030.010.8 9.0 1.8 9.0
2018-Apr-25 12:00N 43°00' W 162°12'27222.7 1030.0 9.0 1.8 9.0
2018-Apr-25 00:00N 43°06' W 168°24'27322.7 270 / 301024.0 10.0 3.1 8.0
2018-Apr-24 12:00N 42°48' W 174°36'27723.1 270 / 301017.0 6.0-2.2 8.0
2018-Apr-24 00:00N 42°12' E 179°12'   280 / 311011.5 8.0 0.5 9.0
2018-Apr-21 06:00N 41°36' E 145°24'13923.2 210 / 161012.0 11.0 6.8 5.0
2018-Apr-21 00:00N 41°36' E 142°18'3222.0 180 / 151020.0 5.4 12.0 7.9 6.0
2018-Apr-20 22:32N 41°39' E 141°35'424.1
2018-Apr-20 22:23N 41°39' E 141°30'923.3
2018-Apr-20 22:00N 41°38' E 141°18'1122.0
2018-Apr-20 21:30N 41°38' E 141°04'1122.3
2018-Apr-20 21:00N 41°35' E 140°50'1223.9
2018-Apr-20 20:31N 41°28' E 140°36'1224.5
2018-Apr-20 20:01N 41°21' E 140°23'5929.4
2018-Apr-20 18:00N 40°42' E 139°24'27222.7 180 / 201020.0 10.0 7.910.0
2018-Apr-20 06:00N 37°42' E 135°00'30323.3 200 / 31022.0 18.010.611.0
2018-Apr-19 16:58N 34°29' E 130°11'1123.8
2018-Apr-19 16:30N 34°22' E 130°01'1223.7
2018-Apr-19 16:00N 34°14' E 129°50'1323.4
2018-Apr-19 15:28N 34°05' E 129°39'1022.9
2018-Apr-19 15:00N 33°58' E 129°30'1223.2
2018-Apr-19 14:30N 33°53' E 129°17'1122.9
2018-Apr-19 14:00N 33°48' E 129°05'1122.8
2018-Apr-19 13:30N 33°44' E 128°52'1122.8
2018-Apr-19 13:01N 33°40' E 128°39'1122.8
2018-Apr-19 12:31N 33°35' E 128°27'1122.8
2018-Apr-19 12:01N 33°30' E 128°14'1122.9
2018-Apr-19 11:31N 33°26' E 128°02'1223.0
2018-Apr-19 11:00N 33°21' E 127°49'1222.9
2018-Apr-19 10:28N 33°15' E 127°36'3323.0
2018-Apr-19 09:02N 33°02' E 127°00'124.0
2018-Apr-19 09:00N 33°01' E 126°59'1223.5
2018-Apr-19 08:30N 32°56' E 126°47'10223.4
2018-Apr-19 04:09N 32°13' E 124°57'423.3
2018-Apr-19 03:58N 32°11' E 124°53'1522.8
2018-Apr-19 03:20N 32°03' E 124°39'922.2
2018-Apr-19 02:56N 31°58' E 124°30'1022.1
2018-Apr-19 02:30N 31°53' E 124°21'2221.6
2018-Apr-19 01:28N 31°40' E 123°59'1821.7
2018-Apr-19 00:38N 31°31' E 123°41'2021.9
2018-Apr-18 23:44N 31°18' E 123°24'5218.9
2018-Apr-18 21:00N 31°05' E 122°25'3114.0
2018-Apr-18 18:46N 31°16' E 121°51'312.3
2018-Apr-18 18:30N 31°18' E 121°47'611.0
2018-Apr-18 17:59N 31°20' E 121°41'6 0.7
2018-Apr-18 08:29N 31°23' E 121°35'0 0.0
2018-Apr-18 06:20N 31°23' E 121°35'0 0.0
2018-Apr-18 02:59N 31°23' E 121°35'1 0.2
2018-Apr-17 19:51N 31°23' E 121°36'1 2.2
2018-Apr-17 19:20N 31°22' E 121°37'1 3.7
2018-Apr-17 18:59N 31°22' E 121°38'2 4.1
2018-Apr-17 18:28N 31°21' E 121°40'3 6.6
2018-Apr-17 18:00N 31°19' E 121°43'911.8
2018-Apr-17 17:17N 31°16' E 121°53'413.5
2018-Apr-17 16:59N 31°15' E 121°57'612.6
2018-Apr-17 16:30N 31°14' E 122°04'713.4
2018-Apr-17 16:00N 31°11' E 122°11'612.3
2018-Apr-17 15:30N 31°07' E 122°17'611.6
2018-Apr-17 14:59N 31°06' E 122°24'2 4.7
2018-Apr-17 14:29N 31°07' E 122°26'5 8.3
2018-Apr-17 13:57N 31°07' E 122°32'611.7
2018-Apr-17 13:26N 31°07' E 122°39'715.0
2018-Apr-17 13:00N 31°07' E 122°46'1631.3
2018-Apr-17 12:29N 31°05' E 123°05'  
Track history (hours):
 
Tides and Currents Weather Stations Pressure Air Temp Water Temp Dewpoint Dewpoint Depression Visibility Wind Speed Wind Dir Waves Ship Positions

M/V Manukai

Owner: Matson Navigation Company, Inc., Oakland, CA. More information available from US FCC via Universal Licensing System and Coast Guard Vessel Documentation Center.

Last reported at 2018-Apr-25 18:00 UTC. Time now 2018-Apr-26 00:20 UTC.
Position N 42°54' W 158°54'.

Type: Ship (hazmat cat A). MMSI: 369296000.

Wind from 270 at 12 knots

Barometer 1030.0 mb
Air temperature 9.0 ° C
Visibility: greater than 10.8 NM
Dewpoint 1.8 ° C
Water temperature 9.0 ° C

Date/timePositionNaut miles runAvg speedWind from/ knotsBaromVisibWave heightAir tempDewpointWater temp
2018-Apr-25 18:00N 42°54' W 158°54'14524.2 270 / 121030.010.8 9.0 1.8 9.0
2018-Apr-25 12:00N 43°00' W 162°12'27222.7 1030.0 9.0 1.8 9.0
2018-Apr-25 00:00N 43°06' W 168°24'27322.7 270 / 301024.0 10.0 3.1 8.0
2018-Apr-24 12:00N 42°48' W 174°36'27723.1 270 / 301017.0 6.0-2.2 8.0
2018-Apr-24 00:00N 42°12' E 179°12'   280 / 311011.5 8.0 0.5 9.0
2018-Apr-21 06:00N 41°36' E 145°24'13923.2 210 / 161012.0 11.0 6.8 5.0
2018-Apr-21 00:00N 41°36' E 142°18'3222.0 180 / 151020.0 5.4 12.0 7.9 6.0
2018-Apr-20 22:32N 41°39' E 141°35'424.1
2018-Apr-20 22:23N 41°39' E 141°30'923.3
2018-Apr-20 22:00N 41°38' E 141°18'1122.0
2018-Apr-20 21:30N 41°38' E 141°04'1122.3
2018-Apr-20 21:00N 41°35' E 140°50'1223.9
2018-Apr-20 20:31N 41°28' E 140°36'1224.5
2018-Apr-20 20:01N 41°21' E 140°23'5929.4
2018-Apr-20 18:00N 40°42' E 139°24'27222.7 180 / 201020.0 10.0 7.910.0
2018-Apr-20 06:00N 37°42' E 135°00'30323.3 200 / 31022.0 18.010.611.0
2018-Apr-19 16:58N 34°29' E 130°11'1123.8
2018-Apr-19 16:30N 34°22' E 130°01'1223.7
2018-Apr-19 16:00N 34°14' E 129°50'1323.4
2018-Apr-19 15:28N 34°05' E 129°39'1022.9
2018-Apr-19 15:00N 33°58' E 129°30'1223.2
2018-Apr-19 14:30N 33°53' E 129°17'1122.9
2018-Apr-19 14:00N 33°48' E 129°05'1122.8
2018-Apr-19 13:30N 33°44' E 128°52'1122.8
2018-Apr-19 13:01N 33°40' E 128°39'1122.8
2018-Apr-19 12:31N 33°35' E 128°27'1122.8
2018-Apr-19 12:01N 33°30' E 128°14'1122.9
2018-Apr-19 11:31N 33°26' E 128°02'1223.0
2018-Apr-19 11:00N 33°21' E 127°49'1222.9
2018-Apr-19 10:28N 33°15' E 127°36'3323.0
2018-Apr-19 09:02N 33°02' E 127°00'124.0
2018-Apr-19 09:00N 33°01' E 126°59'1223.5
2018-Apr-19 08:30N 32°56' E 126°47'10223.4
2018-Apr-19 04:09N 32°13' E 124°57'423.3
2018-Apr-19 03:58N 32°11' E 124°53'1522.8
2018-Apr-19 03:20N 32°03' E 124°39'922.2
2018-Apr-19 02:56N 31°58' E 124°30'1022.1
2018-Apr-19 02:30N 31°53' E 124°21'2221.6
2018-Apr-19 01:28N 31°40' E 123°59'1821.7
2018-Apr-19 00:38N 31°31' E 123°41'2021.9
2018-Apr-18 23:44N 31°18' E 123°24'5218.9
2018-Apr-18 21:00N 31°05' E 122°25'3114.0
2018-Apr-18 18:46N 31°16' E 121°51'312.3
2018-Apr-18 18:30N 31°18' E 121°47'611.0
2018-Apr-18 17:59N 31°20' E 121°41'6 0.7
2018-Apr-18 08:29N 31°23' E 121°35'0 0.0
2018-Apr-18 06:20N 31°23' E 121°35'0 0.0
2018-Apr-18 02:59N 31°23' E 121°35'1 0.2
2018-Apr-17 19:51N 31°23' E 121°36'1 2.2
2018-Apr-17 19:20N 31°22' E 121°37'1 3.7
2018-Apr-17 18:59N 31°22' E 121°38'2 4.1
2018-Apr-17 18:28N 31°21' E 121°40'3 6.6
2018-Apr-17 18:00N 31°19' E 121°43'911.8
2018-Apr-17 17:17N 31°16' E 121°53'413.5
2018-Apr-17 16:59N 31°15' E 121°57'612.6
2018-Apr-17 16:30N 31°14' E 122°04'713.4
2018-Apr-17 16:00N 31°11' E 122°11'612.3
2018-Apr-17 15:30N 31°07' E 122°17'611.6
2018-Apr-17 14:59N 31°06' E 122°24'2 4.7
2018-Apr-17 14:29N 31°07' E 122°26'5 8.3
2018-Apr-17 13:57N 31°07' E 122°32'611.7
2018-Apr-17 13:26N 31°07' E 122°39'715.0
2018-Apr-17 13:00N 31°07' E 122°46'1631.3
2018-Apr-17 12:29N 31°05' E 123°05'  

Dump ship's entire track history